Impacts METAR Board
IDs:

KSEA - Seattle-Tacoma Intl, WA, US

Updated at: 2200 UTC 25 May 2018
Potential Impact None Slight Moderate High
Time 25/10Z 25/11Z 25/12Z 25/13Z 25/14Z 25/15Z 25/16Z 25/17Z 25/18Z 25/19Z 25/20Z 25/21Z 25/22Z
Temp54 53 52 53 54 55 55 57 60 59 62 65 65
Dewpt47 46 45 44 44 45 45 46 47 48 48 49 49
Altim30.04 30.03 30.03 30.04 30.05 30.05 30.06 30.05 30.05 30.04 30.04 30.03 30.03
VIS10 10 10 10 10 10 10 10 10 10 10 10 10
CIG34 -- 27 16 16 19 20 20 25 27 46 250 250
CoverBKNSCTBKNOVCOVCOVCOVCOVCOVCOVCBKNBKNBKN
FltCatVFRVFRMVFRMVFRMVFRMVFRMVFRMVFRMVFRMVFRVFRVFRVFR
WX--------------------------
WDir3501036034020330503400240270260280
WSpd5 3 4 6 5 4 4 5 0 5 5 7 7
WGst-- -- -- -- -- -- -- -- -- -- -- -- --
Raw hourly METARs
KSEA 250953Z 35005KT 10SM BKN034 12/08 A3004 RMK AO2 SLP176 T01220083
KSEA 251053Z 01003KT 10SM SCT035 12/08 A3003 RMK AO2 SLP175 T01170078
KSEA 251153Z 36004KT 10SM BKN027 BKN039 11/07 A3003 RMK AO2 SLP174 T01110072 10150 20111 56003
KSEA 251253Z 34006KT 10SM BKN016 OVC030 12/07 A3004 RMK AO2 SLP177 T01170067
KSEA 251353Z 02005KT 10SM OVC016 12/07 A3005 RMK AO2 SLP182 T01220067
KSEA 251453Z 33004KT 10SM OVC019 13/07 A3005 RMK AO2 SLP183 T01280072 51009
KSEA 251553Z 05004KT 10SM FEW012 OVC020 13/07 A3006 RMK AO2 SLP183 T01280072
KSEA 251653Z 34005KT 10SM FEW012 OVC020 14/08 A3005 RMK AO2 SLP183 T01390078
KSEA 251753Z 00000KT 10SM FEW015 OVC025 16/08 A3005 RMK AO2 SLP180 T01560083 10156 20111 58002
KSEA 251853Z 24005KT 10SM BKN027 OVC045 15/09 A3004 RMK AO2 SLP178 T01500089
KSEA 251953Z 27005KT 10SM FEW025 BKN046 17/09 A3004 RMK AO2 SLP177 T01670089
KSEA 252053Z 26007KT 10SM SCT026 SCT047 BKN250 18/09 A3003 RMK AO2 SLP176 T01830094 56005
KSEA 252153Z 28007KT 250V320 10SM FEW026 SCT048 BKN250 18/09 A3003 RMK AO2 SLP173 T01830094



Page loaded:  22:06 UTC  |   03:06 PM Pacific  |   04:06 PM Mountain  |   05:06 PM Central  |   06:06 PM Eastern

 

ADVISORIES

FORECASTS

FORECASTS

OBSERVATIONS

USER TOOLS

ABOUT US